Time;durP1;ratioP1;P1;durP2;ratioP2;P2;SDS_P1;SDS_P2;PMS_P1;PMS_P2;Temp;Humidity;BMP_temperature;BMP_pressure;BME280_temperature;BME280_humidity;BME280_pressure;Samples;Min_cycle;Max_cycle;Signal;HPM_P1;HPM_P2
2021/09/15 00:59:24;;;;;;;10.18;5.35;;;20.90;65.70;;;;;;208362636;22;20057;-59
2021/09/15 02:39:24;;;;;;;6.95;4.63;;;20.70;66.80;;;;;;208383314;28;20038;-61
2021/09/15 04:19:25;;;;;;;6.22;4.85;;;20.70;67.30;;;;;;208312324;28;20510;-62
2021/09/15 05:43:04;;;;;;;5.57;4.68;;;20.70;67.50;;;;;;2071183;27;20607;-63
2021/09/15 05:44:05;;;;;;;7.13;4.28;;;21.10;60.00;;;;;;2077020;28;20510;-63
2021/09/15 05:45:06;;;;;;;6.05;3.72;;;21.00;59.40;;;;;;2080832;28;20034;-64
2021/09/15 05:46:07;;;;;;;14.70;4.55;;;21.00;59.20;;;;;;2087700;28;20067;-63
2021/09/15 05:47:08;;;;;;;5.03;4.18;;;21.00;59.30;;;;;;2081173;28;20025;-64
2021/09/15 05:48:08;;;;;;;8.93;4.68;;;21.00;59.40;;;;;;2087851;28;20022;-63
2021/09/15 05:49:09;;;;;;;8.02;4.70;;;21.00;59.40;;;;;;2083384;28;20025;-63
2021/09/15 05:50:09;;;;;;;6.13;4.07;;;21.00;59.60;;;;;;2061712;28;20042;-64
2021/09/15 05:51:10;;;;;;;8.52;4.25;;;21.00;59.60;;;;;;2075468;28;20037;-66
2021/09/15 05:52:10;;;;;;;8.70;4.38;;;21.10;60.00;;;;;;2079488;28;20030;-64
2021/09/15 05:53:12;;;;;;;7.57;4.38;;;21.00;59.90;;;;;;2079799;28;20091;-64
2021/09/15 05:54:13;;;;;;;7.10;4.53;;;21.00;59.90;;;;;;2080389;28;20021;-64
2021/09/15 05:55:13;;;;;;;11.55;4.22;;;21.10;60.00;;;;;;2079660;28;20021;-64
2021/09/15 05:56:14;;;;;;;9.77;4.75;;;21.10;60.00;;;;;;2079673;28;20033;-65
2021/09/15 05:57:14;;;;;;;17.20;7.82;;;21.00;60.10;;;;;;2085234;28;20108;-64
2021/09/15 05:58:17;;;;;;;12.70;5.35;;;21.00;60.40;;;;;;2087999;28;20029;-64
2021/09/15 05:59:17;;;;;;;13.52;5.47;;;21.00;60.30;;;;;;2071502;28;20057;-64
2021/09/15 06:00:18;;;;;;;11.38;5.38;;;21.00;60.30;;;;;;2076930;28;20025;-64
2021/09/15 06:01:19;;;;;;;15.25;5.90;;;21.00;60.40;;;;;;2087899;28;20037;-65
2021/09/15 06:02:19;;;;;;;19.70;6.63;;;21.00;60.40;;;;;;2082192;28;20080;-66
2021/09/15 06:03:20;;;;;;;16.90;6.18;;;21.00;60.50;;;;;;2079183;28;20030;-64
2021/09/15 06:04:20;;;;;;;18.48;7.95;;;21.00;60.60;;;;;;2074765;28;20045;-64
2021/09/15 06:05:21;;;;;;;17.02;7.85;;;21.00;60.80;;;;;;2077030;28;20545;-64
2021/09/15 06:06:21;;;;;;;20.20;7.78;;;21.10;61.40;;;;;;2079673;28;20097;-64
2021/09/15 06:07:22;;;;;;;11.45;6.05;;;21.00;60.70;;;;;;2085496;28;20040;-64
2021/09/15 06:08:23;;;;;;;13.23;6.80;;;21.00;60.60;;;;;;2087742;28;20386;-64
2021/09/15 06:09:23;;;;;;;20.75;6.50;;;21.10;60.60;;;;;;2088012;28;20029;-64
2021/09/15 06:10:24;;;;;;;20.58;8.52;;;21.00;60.60;;;;;;2087584;28;20041;-64
2021/09/15 06:11:24;;;;;;;25.48;8.90;;;21.00;60.60;;;;;;2079571;28;20136;-64
2021/09/15 06:12:25;;;;;;;22.27;8.10;;;21.00;60.50;;;;;;2083348;28;20078;-64
2021/09/15 06:13:25;;;;;;;31.45;8.55;;;21.00;60.40;;;;;;2087919;28;20043;-64
2021/09/15 06:14:26;;;;;;;15.18;8.63;;;21.10;60.50;;;;;;2087712;28;20480;-64
2021/09/15 06:15:26;;;;;;;17.40;7.93;;;21.00;60.30;;;;;;2088090;28;20033;-65
2021/09/15 06:16:27;;;;;;;13.75;7.10;;;21.00;60.40;;;;;;2077624;28;20400;-65
2021/09/15 06:17:28;;;;;;;13.07;8.55;;;21.00;60.30;;;;;;2088298;28;20021;-65
2021/09/15 06:18:28;;;;;;;17.52;8.02;;;21.10;60.40;;;;;;2080845;28;20034;-65
2021/09/15 06:19:29;;;;;;;14.57;7.85;;;21.10;60.80;;;;;;2085031;28;20026;-66
2021/09/15 06:20:29;;;;;;;19.58;7.57;;;21.10;60.30;;;;;;2084061;28;20056;-65
2021/09/15 06:21:30;;;;;;;20.33;9.00;;;21.00;60.20;;;;;;2086496;28;20052;-66
2021/09/15 06:22:30;;;;;;;19.77;9.30;;;21.10;60.20;;;;;;2087975;28;20132;-66
2021/09/15 06:23:32;;;;;;;22.88;9.57;;;21.10;60.30;;;;;;2088427;28;20025;-65
2021/09/15 06:24:32;;;;;;;;;;;21.10;60.10;;;;;;2088771;28;20048;-64
2021/09/15 06:25:33;;;;;;;27.55;10.48;;;21.10;60.10;;;;;;2086534;28;19905;-65
2021/09/15 06:26:33;;;;;;;19.52;8.63;;;21.10;60.00;;;;;;2030311;28;20104;-64
2021/09/15 06:27:35;;;;;;;18.00;8.80;;;21.10;60.40;;;;;;2083762;28;20034;-67
2021/09/15 06:28:36;;;;;;;21.42;11.20;;;21.10;60.20;;;;;;2088043;28;20036;-66
2021/09/15 06:29:37;;;;;;;21.63;8.65;;;21.10;60.10;;;;;;2088308;28;20083;-66
2021/09/15 06:30:39;;;;;;;21.65;8.95;;;21.10;60.00;;;;;;2088228;28;20518;-66
2021/09/15 06:31:41;;;;;;;21.33;9.00;;;21.10;60.10;;;;;;2088245;28;20026;-66
2021/09/15 06:32:42;;;;;;;17.60;9.15;;;21.10;60.10;;;;;;2088284;28;20033;-66
2021/09/15 06:33:43;;;;;;;25.83;8.50;;;21.10;60.00;;;;;;2088457;28;20038;-66
2021/09/15 06:34:43;;;;;;;17.65;8.57;;;21.10;60.00;;;;;;2087992;28;20356;-66
2021/09/15 06:35:44;;;;;;;27.48;9.63;;;21.10;60.00;;;;;;2088244;28;20526;-66
2021/09/15 06:36:44;;;;;;;15.02;8.13;;;21.10;60.00;;;;;;2087869;28;20029;-66
2021/09/15 06:37:45;;;;;;;15.55;8.45;;;21.10;60.00;;;;;;2088116;28;20507;-66
2021/09/15 06:38:46;;;;;;;12.80;7.22;;;21.10;60.00;;;;;;2085969;28;20412;-66
2021/09/15 06:39:47;;;;;;;21.75;8.88;;;21.10;60.00;;;;;;2079980;28;20480;-65
2021/09/15 06:40:47;;;;;;;17.73;7.97;;;21.10;60.00;;;;;;2084610;28;20111;-66
2021/09/15 06:41:48;;;;;;;18.90;9.65;;;21.10;59.90;;;;;;2088106;28;20515;-66
2021/09/15 06:42:48;;;;;;;14.95;7.70;;;21.10;59.90;;;;;;2087852;28;20183;-66
2021/09/15 06:43:49;;;;;;;16.17;8.52;;;21.10;59.90;;;;;;2086517;28;20025;-66
2021/09/15 06:44:50;;;;;;;16.15;7.00;;;21.10;59.80;;;;;;2081165;28;20342;-66
2021/09/15 06:45:50;;;;;;;18.15;8.07;;;21.20;59.90;;;;;;2080006;28;20387;-66
2021/09/15 06:46:51;;;;;;;18.90;8.30;;;21.10;59.80;;;;;;2086256;28;20040;-66
2021/09/15 06:47:51;;;;;;;13.32;8.45;;;21.10;59.70;;;;;;2087962;28;20037;-66
2021/09/15 06:48:52;;;;;;;13.32;7.60;;;21.20;59.80;;;;;;2088145;28;20032;-66
2021/09/15 06:49:52;;;;;;;22.27;8.27;;;21.20;59.80;;;;;;2087857;28;20074;-65
2021/09/15 06:50:53;;;;;;;23.15;10.27;;;21.20;59.80;;;;;;2088097;28;20094;-65
2021/09/15 06:51:54;;;;;;;12.57;7.45;;;21.20;59.90;;;;;;2087566;28;20017;-65
2021/09/15 06:52:54;;;;;;;20.60;8.73;;;21.20;59.80;;;;;;2087887;28;20098;-66
2021/09/15 06:53:55;;;;;;;16.83;7.78;;;21.20;59.70;;;;;;2085171;28;20038;-66
2021/09/15 06:54:55;;;;;;;14.55;7.95;;;21.20;59.70;;;;;;2082646;28;20104;-65
2021/09/15 06:55:56;;;;;;;19.50;8.75;;;21.20;59.70;;;;;;2082814;28;20515;-65
2021/09/15 06:56:56;;;;;;;13.27;7.90;;;21.10;59.60;;;;;;2082465;28;20038;-66
2021/09/15 06:57:57;;;;;;;19.92;7.90;;;21.20;59.60;;;;;;2081756;28;20033;-66
2021/09/15 06:58:57;;;;;;;18.73;7.82;;;21.20;60.00;;;;;;2082375;28;20029;-65
2021/09/15 06:59:58;;;;;;;18.85;8.50;;;21.20;59.70;;;;;;2081078;28;20507;-65
2021/09/15 07:00:58;;;;;;;20.05;9.25;;;21.20;59.60;;;;;;2081013;28;20578;-65
2021/09/15 07:01:59;;;;;;;20.50;8.73;;;21.20;59.70;;;;;;2082245;28;20036;-65
2021/09/15 07:02:59;;;;;;;17.23;8.20;;;21.20;59.80;;;;;;2081484;28;20177;-65
2021/09/15 07:04:00;;;;;;;15.35;7.40;;;21.20;59.90;;;;;;2081209;28;20025;-65
2021/09/15 07:05:01;;;;;;;13.75;7.82;;;21.20;59.70;;;;;;2075092;28;20045;-65
2021/09/15 07:06:01;;;;;;;13.88;8.27;;;21.20;59.70;;;;;;2076964;28;20029;-65
2021/09/15 07:07:02;;;;;;;14.95;7.88;;;21.20;59.80;;;;;;2073747;28;20021;-65
2021/09/15 07:08:04;;;;;;;16.65;7.25;;;21.20;59.80;;;;;;2074050;28;20076;-66
2021/09/15 07:09:05;;;;;;;11.90;7.10;;;21.20;59.90;;;;;;2081263;28;20052;-65
2021/09/15 07:10:07;;;;;;;14.05;6.88;;;21.30;60.00;;;;;;2081947;28;20128;-66
2021/09/15 07:11:07;;;;;;;9.95;7.18;;;21.20;59.80;;;;;;2082428;28;20492;-66
2021/09/15 07:12:08;;;;;;;15.63;6.60;;;21.20;59.80;;;;;;2081621;28;20075;-64
2021/09/15 07:13:09;;;;;;;10.07;6.40;;;21.30;59.90;;;;;;2082343;28;20025;-66
2021/09/15 07:14:10;;;;;;;;;;;21.20;59.80;;;;;;2082861;28;20485;-64
2021/09/15 07:15:11;;;;;;;13.60;7.20;;;21.30;60.00;;;;;;2082524;28;20015;-67
2021/09/15 07:16:11;;;;;;;11.68;6.28;;;21.30;59.90;;;;;;2082329;28;20021;-64
2021/09/15 07:17:12;;;;;;;14.20;7.45;;;21.30;60.00;;;;;;2082421;28;20037;-63
2021/09/15 07:18:12;;;;;;;12.57;7.28;;;21.30;60.00;;;;;;2082476;28;20048;-64
2021/09/15 07:19:13;;;;;;;16.20;7.72;;;21.30;59.90;;;;;;2082276;28;20029;-65
2021/09/15 07:20:14;;;;;;;15.45;7.05;;;21.20;60.00;;;;;;2082226;28;20053;-65
2021/09/15 07:21:15;;;;;;;11.38;6.82;;;21.30;60.00;;;;;;2082282;28;20053;-66
2021/09/15 07:22:16;;;;;;;;;;;21.30;60.40;;;;;;2082234;28;20025;-65
2021/09/15 07:23:17;;;;;;;15.50;6.53;;;21.20;60.10;;;;;;2082318;28;19912;-65
2021/09/15 07:24:18;;;;;;;10.63;6.50;;;21.30;60.10;;;;;;2082291;28;20044;-65
2021/09/15 07:25:18;;;;;;;17.77;7.05;;;21.30;60.10;;;;;;2082078;28;20532;-66
2021/09/15 07:26:19;;;;;;;34.25;7.65;;;21.30;60.60;;;;;;2081762;28;20107;-67
2021/09/15 07:27:19;;;;;;;21.98;8.07;;;21.30;60.20;;;;;;2081721;28;20083;-67
2021/09/15 07:28:21;;;;;;;13.82;6.75;;;21.30;60.10;;;;;;2081975;28;20045;-66
2021/09/15 07:29:21;;;;;;;11.05;6.35;;;21.30;60.00;;;;;;2081903;28;20085;-66
2021/09/15 07:30:22;;;;;;;21.90;7.65;;;21.30;60.00;;;;;;2081837;28;20131;-66
2021/09/15 07:31:23;;;;;;;12.80;7.05;;;21.30;59.80;;;;;;2081789;28;20052;-66
2021/09/15 07:32:24;;;;;;;19.00;7.22;;;21.30;59.80;;;;;;2074378;28;20032;-67
2021/09/15 07:33:24;;;;;;;12.60;6.93;;;21.30;60.00;;;;;;2073568;28;20113;-66
2021/09/15 07:34:25;;;;;;;18.30;6.88;;;21.30;59.80;;;;;;2073463;28;20061;-65
2021/09/15 07:35:25;;;;;;;13.82;6.55;;;21.30;59.80;;;;;;2073525;28;20427;-66
2021/09/15 07:36:26;;;;;;;13.25;7.35;;;21.30;60.00;;;;;;2072798;28;20053;-65
2021/09/15 07:37:26;;;;;;;17.30;6.88;;;21.30;60.00;;;;;;2074270;28;20085;-66
2021/09/15 07:38:27;;;;;;;13.63;7.45;;;21.30;60.10;;;;;;2079855;28;20029;-67
2021/09/15 07:39:28;;;;;;;;;;;21.30;60.00;;;;;;2080742;28;20395;-66
2021/09/15 07:40:30;;;;;;;10.32;6.72;;;21.30;60.10;;;;;;2081731;28;19905;-65
2021/09/15 07:41:30;;;;;;;11.05;5.78;;;21.30;60.00;;;;;;2078793;28;20053;-66
2021/09/15 07:42:31;;;;;;;11.02;6.38;;;21.30;60.10;;;;;;2081355;28;20185;-66
2021/09/15 07:43:31;;;;;;;15.65;6.55;;;21.30;60.00;;;;;;2081540;28;20030;-67
2021/09/15 07:44:32;;;;;;;18.40;6.80;;;21.30;60.10;;;;;;2078756;28;20022;-65
2021/09/15 07:45:33;;;;;;;18.10;7.05;;;21.30;60.10;;;;;;2079380;28;20026;-66
2021/09/15 07:46:33;;;;;;;9.38;6.22;;;21.30;60.00;;;;;;2078276;28;20017;-65
2021/09/15 07:47:34;;;;;;;13.23;6.10;;;21.30;60.10;;;;;;2076774;28;20503;-66
2021/09/15 07:48:35;;;;;;;12.75;7.18;;;21.30;60.10;;;;;;2079069;28;20024;-66
2021/09/15 07:49:35;;;;;;;10.70;5.95;;;21.30;60.00;;;;;;2080345;28;20541;-65
2021/09/15 07:50:36;;;;;;;14.13;5.80;;;21.30;60.00;;;;;;2081928;28;20017;-65
2021/09/15 07:51:36;;;;;;;13.88;6.18;;;21.30;60.00;;;;;;2080601;28;20025;-66
2021/09/15 07:52:37;;;;;;;8.75;5.00;;;21.30;60.00;;;;;;2081485;28;20056;-65
2021/09/15 07:53:38;;;;;;;10.57;5.82;;;21.40;60.10;;;;;;2081777;28;20045;-65
2021/09/15 07:54:38;;;;;;;16.45;6.13;;;21.30;59.90;;;;;;2081551;28;20254;-66
2021/09/15 07:55:39;;;;;;;13.18;6.05;;;21.30;59.80;;;;;;2079763;28;20053;-65
2021/09/15 07:56:40;;;;;;;10.05;6.32;;;21.40;59.90;;;;;;2077248;28;20633;-66
2021/09/15 07:57:44;;;;;;;11.80;5.03;;;21.40;59.90;;;;;;2076832;28;20140;-67
2021/09/15 07:58:45;;;;;;;8.82;6.10;;;21.40;59.90;;;;;;2078230;28;20025;-65
2021/09/15 07:59:46;;;;;;;13.00;6.07;;;21.40;59.70;;;;;;2081222;28;20391;-65
2021/09/15 08:00:46;;;;;;;8.15;5.97;;;21.40;59.90;;;;;;2080121;28;20108;-67
2021/09/15 08:01:47;;;;;;;14.30;6.10;;;21.40;59.80;;;;;;2081111;28;20022;-66
2021/09/15 08:02:48;;;;;;;13.90;5.78;;;21.40;59.80;;;;;;2081395;28;20549;-65
2021/09/15 08:03:48;;;;;;;9.60;5.43;;;21.40;59.70;;;;;;2081433;28;20026;-65
2021/09/15 08:04:49;;;;;;;8.85;6.07;;;21.40;59.80;;;;;;2081451;28;20080;-65
2021/09/15 08:05:49;;;;;;;13.55;5.85;;;21.40;60.00;;;;;;2073190;28;20022;-66
2021/09/15 08:06:50;;;;;;;14.38;7.05;;;21.50;59.60;;;;;;2071364;28;20066;-66
2021/09/15 08:07:50;;;;;;;8.18;5.07;;;21.50;59.70;;;;;;2072922;28;20026;-67
2021/09/15 08:08:51;;;;;;;11.63;6.97;;;21.50;59.70;;;;;;2077068;28;20069;-66
2021/09/15 08:09:51;;;;;;;9.68;5.47;;;21.50;59.50;;;;;;2076773;28;20017;-66
2021/09/15 08:10:52;;;;;;;10.95;5.38;;;21.50;60.00;;;;;;2075476;28;20112;-67
2021/09/15 08:11:52;;;;;;;15.73;6.25;;;21.40;59.70;;;;;;2074034;28;20022;-67
2021/09/15 08:12:53;;;;;;;13.98;5.93;;;21.40;59.70;;;;;;2074435;28;20032;-66
2021/09/15 08:13:53;;;;;;;11.90;6.75;;;21.50;59.70;;;;;;2074544;28;20018;-67
2021/09/15 08:14:54;;;;;;;9.95;5.53;;;21.50;59.70;;;;;;2074452;28;20116;-66
2021/09/15 08:15:54;;;;;;;12.50;5.20;;;21.40;59.70;;;;;;2075100;28;20038;-67
2021/09/15 08:16:55;;;;;;;16.00;6.70;;;21.50;59.60;;;;;;2073628;28;20061;-67
2021/09/15 08:17:55;;;;;;;10.10;5.70;;;21.40;59.40;;;;;;2075036;28;20096;-66
2021/09/15 08:18:58;;;;;;;9.30;4.80;;;21.50;59.50;;;;;;2073991;28;20041;-66
2021/09/15 08:19:59;;;;;;;11.13;5.90;;;21.50;59.60;;;;;;2074548;28;20026;-67
2021/09/15 08:21:01;;;;;;;8.05;5.50;;;21.40;59.40;;;;;;2071974;28;20042;-66
2021/09/15 08:22:01;;;;;;;7.80;5.13;;;21.50;59.40;;;;;;2066555;28;20030;-67
2021/09/15 08:23:02;;;;;;;9.75;5.82;;;21.40;59.40;;;;;;2065861;28;20030;-67
2021/09/15 08:24:03;;;;;;;6.10;4.95;;;21.50;59.50;;;;;;2068573;28;20026;-67
2021/09/15 08:25:04;;;;;;;10.27;5.97;;;21.50;59.40;;;;;;2074178;28;20105;-66
2021/09/15 08:26:04;;;;;;;7.72;4.50;;;21.50;59.40;;;;;;2074207;28;20049;-66
2021/09/15 08:27:05;;;;;;;11.32;4.80;;;21.40;59.40;;;;;;2072791;28;20034;-66
2021/09/15 08:28:06;;;;;;;12.70;5.57;;;21.50;59.10;;;;;;2073980;28;20062;-66
2021/09/15 08:29:07;;;;;;;12.70;5.43;;;21.50;59.20;;;;;;2075648;28;20109;-67
2021/09/15 08:30:09;;;;;;;13.95;5.00;;;21.50;59.30;;;;;;2073745;28;20404;-66
2021/09/15 08:31:10;;;;;;;10.30;5.53;;;21.50;59.30;;;;;;2074253;28;20104;-66
2021/09/15 08:32:11;;;;;;;10.85;5.43;;;21.40;59.00;;;;;;2072206;28;20060;-66
2021/09/15 08:33:11;;;;;;;10.00;5.07;;;21.50;59.10;;;;;;2073252;28;20026;-66
2021/09/15 08:34:12;;;;;;;7.50;5.10;;;21.50;58.80;;;;;;2079319;28;20022;-67
2021/09/15 08:35:12;;;;;;;13.90;5.38;;;21.50;58.80;;;;;;2073157;28;20032;-66
2021/09/15 08:36:13;;;;;;;8.57;4.90;;;21.50;58.80;;;;;;2072991;28;20029;-66
2021/09/15 08:37:14;;;;;;;9.93;5.65;;;21.50;58.60;;;;;;2071833;28;20034;-66
2021/09/15 08:38:14;;;;;;;11.00;5.82;;;21.50;58.60;;;;;;2074035;28;20018;-66
2021/09/15 08:39:16;;;;;;;9.35;5.20;;;21.50;58.80;;;;;;2074544;28;20025;-66
2021/09/15 08:40:16;;;;;;;10.27;4.97;;;21.50;58.80;;;;;;2073058;28;20022;-66
2021/09/15 08:41:17;;;;;;;8.88;5.65;;;21.50;58.50;;;;;;2073028;28;20037;-66
2021/09/15 08:42:18;;;;;;;9.43;5.30;;;21.50;58.60;;;;;;2072840;28;20109;-66
2021/09/15 08:43:19;;;;;;;8.02;4.90;;;21.50;58.40;;;;;;2073028;28;20101;-66
2021/09/15 08:44:20;;;;;;;8.70;5.07;;;21.50;58.60;;;;;;2072359;28;20022;-65
2021/09/15 08:45:24;;;;;;;10.63;5.25;;;21.50;58.40;;;;;;2072336;28;20041;-66
2021/09/15 08:46:27;;;;;;;8.15;4.78;;;21.50;58.50;;;;;;2072548;28;20388;-66
2021/09/15 08:47:30;;;;;;;8.38;5.13;;;21.50;58.40;;;;;;2072772;28;20041;-65
2021/09/15 08:48:35;;;;;;;8.80;4.85;;;21.50;58.50;;;;;;2076927;28;20033;-66
2021/09/15 08:49:36;;;;;;;10.77;4.35;;;21.50;58.30;;;;;;2081228;28;20033;-66
2021/09/15 08:50:37;;;;;;;8.55;4.90;;;21.50;58.30;;;;;;2081115;28;20028;-66
2021/09/15 08:51:37;;;;;;;8.02;5.20;;;21.50;58.40;;;;;;2073493;28;20022;-65
2021/09/15 08:52:38;;;;;;;8.88;4.85;;;21.50;58.30;;;;;;2072169;28;20505;-65
2021/09/15 08:53:40;;;;;;;9.13;4.90;;;21.50;58.10;;;;;;2072522;28;20125;-65
2021/09/15 08:54:41;;;;;;;9.45;4.90;;;21.50;58.10;;;;;;2073005;28;20034;-65
2021/09/15 08:55:42;;;;;;;7.40;4.60;;;21.50;58.00;;;;;;2073048;28;20038;-65
2021/09/15 08:56:43;;;;;;;6.68;4.53;;;21.50;58.10;;;;;;2072634;28;20854;-65
2021/09/15 08:57:43;;;;;;;5.20;4.30;;;21.50;58.00;;;;;;2072312;28;20018;-64
2021/09/15 08:58:44;;;;;;;9.98;5.28;;;21.50;58.10;;;;;;2077874;28;20400;-64
2021/09/15 08:59:45;;;;;;;14.20;6.07;;;21.50;58.20;;;;;;2076087;28;20029;-64
2021/09/15 09:00:47;;;;;;;8.63;4.10;;;21.50;58.10;;;;;;2080721;28;20033;-65
2021/09/15 09:02:03;;;;;;;7.45;5.20;;;21.50;58.10;;;;;;2072923;28;20034;-65
2021/09/15 09:03:04;;;;;;;8.40;5.63;;;21.50;58.00;;;;;;2072956;28;20098;-65
2021/09/15 09:04:05;;;;;;;8.48;5.18;;;21.50;58.00;;;;;;2073011;28;20087;-66
2021/09/15 09:05:06;;;;;;;6.97;4.25;;;21.50;57.90;;;;;;2072874;28;20457;-65
2021/09/15 09:06:21;;;;;;;7.75;4.75;;;21.50;57.90;;;;;;2072928;28;20030;-65
2021/09/15 09:07:23;;;;;;;11.90;4.88;;;21.50;57.90;;;;;;2072307;28;20030;-65
2021/09/15 09:08:24;;;;;;;6.45;4.22;;;21.50;58.00;;;;;;2072064;28;20469;-65
2021/09/15 09:09:26;;;;;;;9.70;4.20;;;21.50;57.80;;;;;;2073494;28;20041;-65
2021/09/15 09:10:32;;;;;;;9.77;4.47;;;21.50;57.90;;;;;;2081153;28;20033;-65
2021/09/15 09:11:36;;;;;;;7.13;4.32;;;21.50;57.80;;;;;;2073440;28;20472;-65
2021/09/15 09:12:38;;;;;;;8.80;5.28;;;21.50;57.80;;;;;;2072719;28;20060;-65
2021/09/15 09:13:53;;;;;;;7.25;4.30;;;21.50;57.80;;;;;;2072874;28;20076;-65
2021/09/15 09:15:18;;;;;;;10.90;4.63;;;21.50;57.80;;;;;;2072940;28;20058;-65
2021/09/15 09:16:40;;;;;;;6.75;4.32;;;21.50;57.80;;;;;;2072678;28;20037;-65
2021/09/15 09:17:41;;;;;;;6.35;4.60;;;21.50;57.80;;;;;;2071815;28;20037;-65
2021/09/15 09:18:58;;;;;;;10.13;5.00;;;21.50;57.90;;;;;;2071469;28;20038;-65
2021/09/15 09:20:21;;;;;;;6.93;4.40;;;21.50;57.80;;;;;;2072800;28;20030;-65
2021/09/15 09:21:27;;;;;;;5.53;3.75;;;21.50;57.80;;;;;;2070487;28;20659;-65
2021/09/15 09:22:28;;;;;;;6.20;4.13;;;21.50;57.60;;;;;;2072566;28;20157;-65
2021/09/15 09:23:28;;;;;;;7.38;5.05;;;21.50;57.70;;;;;;2072785;28;20521;-66
2021/09/15 09:24:29;;;;;;;5.85;4.05;;;21.50;57.60;;;;;;2072870;28;20038;-66
2021/09/15 09:25:34;;;;;;;7.78;4.85;;;21.50;57.90;;;;;;2072682;28;20022;-66
2021/09/15 09:26:45;;;;;;;7.60;4.55;;;21.50;57.70;;;;;;2072159;28;20030;-66
2021/09/15 09:27:45;;;;;;;8.18;4.55;;;21.50;57.60;;;;;;2069524;28;20026;-68
2021/09/15 09:28:46;;;;;;;9.60;4.13;;;21.60;57.70;;;;;;2070450;28;20022;-66
2021/09/15 09:29:46;;;;;;;5.90;4.13;;;21.50;57.60;;;;;;2077470;28;20018;-65
2021/09/15 09:30:49;;;;;;;5.82;4.22;;;21.50;57.60;;;;;;2071469;28;20037;-66
2021/09/15 09:31:57;;;;;;;5.57;4.70;;;21.60;57.50;;;;;;2064570;28;20522;-67
2021/09/15 09:32:58;;;;;;;6.80;3.85;;;21.60;57.50;;;;;;2072598;28;20034;-66
2021/09/15 09:34:03;;;;;;;7.15;4.28;;;21.60;57.60;;;;;;2072648;28;20030;-66
2021/09/15 09:35:04;;;;;;;11.00;5.00;;;21.50;57.50;;;;;;2071496;28;20056;-66
2021/09/15 09:36:07;;;;;;;9.07;4.57;;;21.50;57.50;;;;;;2075845;28;20021;-65
2021/09/15 09:37:15;;;;;;;8.07;4.40;;;21.60;57.50;;;;;;2074057;28;20044;-66
2021/09/15 09:38:24;;;;;;;8.32;4.60;;;21.50;57.60;;;;;;2073238;28;20458;-65
2021/09/15 09:39:56;;;;;;;8.02;4.53;;;21.50;57.50;;;;;;2077048;28;20026;-66
2021/09/15 09:41:07;;;;;;;7.85;4.63;;;21.50;57.60;;;;;;2068903;28;20037;-65
2021/09/15 09:42:22;;;;;;;8.88;4.88;;;21.50;57.40;;;;;;2063110;28;20054;-65
2021/09/15 09:43:23;;;;;;;5.72;4.03;;;21.50;57.50;;;;;;2063344;28;20496;-65
2021/09/15 09:44:28;;;;;;;8.30;4.35;;;21.50;57.30;;;;;;2067563;28;20030;-66
2021/09/15 09:45:28;;;;;;;8.30;4.05;;;21.50;57.40;;;;;;2071506;28;20396;-66
2021/09/15 09:46:31;;;;;;;5.30;3.38;;;21.60;57.40;;;;;;2067064;28;20161;-65
2021/09/15 09:47:33;;;;;;;7.60;4.60;;;21.60;57.40;;;;;;2062740;28;20114;-65
2021/09/15 09:48:38;;;;;;;6.05;4.40;;;21.60;57.70;;;;;;2061926;28;20023;-67
2021/09/15 09:50:00;;;;;;;6.45;4.03;;;21.60;57.60;;;;;;2061008;28;20022;-64
2021/09/15 09:51:04;;;;;;;8.07;4.18;;;21.60;58.30;;;;;;2062604;28;20023;-64
2021/09/15 09:52:04;;;;;;;9.23;4.13;;;21.60;58.00;;;;;;2065919;28;20113;-63
2021/09/15 09:53:05;;;;;;;6.47;4.47;;;21.60;57.90;;;;;;2071457;28;20547;-62
2021/09/15 09:54:19;;;;;;;8.93;5.03;;;21.60;58.20;;;;;;2071461;28;20614;-64
2021/09/15 09:55:21;;;;;;;11.27;4.82;;;21.60;58.40;;;;;;2063714;28;20034;-64
2021/09/15 09:56:21;;;;;;;8.48;4.05;;;21.60;58.30;;;;;;2071400;28;20041;-63
2021/09/15 09:57:22;;;;;;;7.05;4.85;;;21.60;58.50;;;;;;2066944;28;20531;-64
2021/09/15 09:58:24;;;;;;;9.93;4.70;;;21.60;58.60;;;;;;2062643;28;20034;-64
2021/09/15 09:59:28;;;;;;;12.65;4.47;;;21.60;58.70;;;;;;2069863;28;20578;-64
2021/09/15 10:00:29;;;;;;;12.05;5.00;;;21.60;58.80;;;;;;2071430;28;20695;-64
2021/09/15 10:01:37;;;;;;;9.18;4.30;;;21.60;58.90;;;;;;2070832;28;20030;-64
2021/09/15 10:02:38;;;;;;;14.50;4.82;;;21.60;58.80;;;;;;2060288;28;20027;-65
2021/09/15 10:03:38;;;;;;;8.68;3.90;;;21.60;58.90;;;;;;2056093;28;20110;-64
2021/09/15 10:04:41;;;;;;;8.45;4.47;;;21.60;59.00;;;;;;2068030;28;20026;-64
2021/09/15 10:05:44;;;;;;;9.55;4.35;;;21.60;58.90;;;;;;2071518;28;20029;-62
2021/09/15 10:06:45;;;;;;;7.07;3.95;;;21.60;59.10;;;;;;2071333;28;20072;-62
2021/09/15 10:07:47;;;;;;;8.40;4.60;;;21.60;59.00;;;;;;2063323;28;20505;-63
2021/09/15 10:08:48;;;;;;;9.10;4.38;;;21.60;59.00;;;;;;2062958;28;20041;-64
2021/09/15 10:09:49;;;;;;;7.85;4.85;;;21.70;59.10;;;;;;2071100;28;20072;-64
2021/09/15 10:10:50;;;;;;;8.60;4.13;;;21.70;59.10;;;;;;2062991;28;20022;-65
2021/09/15 10:11:51;;;;;;;8.00;3.97;;;21.60;59.10;;;;;;2062757;28;20034;-65
2021/09/15 10:12:56;;;;;;;8.93;5.05;;;21.60;59.10;;;;;;2071247;28;20100;-64
2021/09/15 10:13:58;;;;;;;7.63;3.88;;;21.70;59.20;;;;;;2062924;28;20041;-65
2021/09/15 10:15:00;;;;;;;9.25;4.60;;;21.70;59.20;;;;;;2062320;28;20030;-65
2021/09/15 10:16:05;;;;;;;;;;;21.70;59.30;;;;;;2070532;28;20112;-64
2021/09/15 10:17:15;;;;;;;10.25;4.47;;;21.70;59.20;;;;;;2063279;28;19906;-64
2021/09/15 10:18:17;;;;;;;7.20;3.90;;;21.70;59.30;;;;;;2075122;28;20029;-65
2021/09/15 10:19:24;;;;;;;8.27;4.50;;;21.70;59.30;;;;;;2080464;28;20049;-64
2021/09/15 10:20:29;;;;;;;10.60;4.75;;;21.70;59.40;;;;;;2080498;28;20112;-65
2021/09/15 10:21:32;;;;;;;8.48;4.47;;;21.70;59.40;;;;;;2076772;28;20435;-64
2021/09/15 10:22:35;;;;;;;9.27;4.70;;;21.70;59.40;;;;;;2080125;28;20037;-64
2021/09/15 10:23:39;;;;;;;5.07;3.00;;;21.70;59.40;;;;;;2072952;28;20053;-64
2021/09/15 10:24:52;;;;;;;7.80;4.10;;;21.70;59.50;;;;;;2072388;28;20384;-64
2021/09/15 10:25:52;;;;;;;7.55;3.63;;;21.60;59.50;;;;;;2064172;28;20034;-64
2021/09/15 10:26:59;;;;;;;10.57;4.05;;;21.70;59.50;;;;;;2076525;28;20071;-64
2021/09/15 10:27:59;;;;;;;5.63;3.92;;;21.70;60.00;;;;;;2072880;28;20069;-64
2021/09/15 10:29:27;;;;;;;7.60;4.65;;;21.60;59.60;;;;;;2080570;28;20071;-63
2021/09/15 10:30:44;;;;;;;7.60;4.20;;;21.60;59.60;;;;;;2081738;28;20029;-64
2021/09/15 10:32:05;;;;;;;8.77;5.00;;;21.60;59.60;;;;;;2081853;28;20086;-64
2021/09/15 10:33:06;;;;;;;5.75;3.85;;;21.60;59.70;;;;;;2078936;28;20038;-65
2021/09/15 10:34:06;;;;;;;6.90;3.55;;;21.70;59.80;;;;;;2065150;28;20496;-65
2021/09/15 10:35:08;;;;;;;11.43;4.10;;;21.60;59.70;;;;;;2073057;28;20033;-64
2021/09/15 10:36:12;;;;;;;7.97;4.65;;;21.70;59.70;;;;;;2082017;28;20021;-65
2021/09/15 10:37:12;;;;;;;9.05;4.25;;;21.70;59.70;;;;;;2081991;28;20087;-65
2021/09/15 10:38:14;;;;;;;7.20;4.33;;;21.70;59.90;;;;;;2074035;28;20030;-63
2021/09/15 10:39:23;;;;;;;5.75;3.50;;;21.70;59.90;;;;;;2073403;28;20528;-63
2021/09/15 10:40:28;;;;;;;6.38;4.15;;;21.70;59.90;;;;;;2074692;28;20026;-64
2021/09/15 10:41:34;;;;;;;8.57;3.72;;;21.70;60.00;;;;;;2081892;28;20028;-63
2021/09/15 10:42:47;;;;;;;6.82;3.83;;;21.70;60.00;;;;;;2080294;28;20029;-63
2021/09/15 10:43:48;;;;;;;5.95;3.83;;;21.70;60.00;;;;;;2079922;28;20026;-63
2021/09/15 10:45:22;;;;;;;8.07;3.92;;;21.70;59.90;;;;;;2076683;28;20057;-64
2021/09/15 10:46:25;;;;;;;6.32;4.13;;;21.70;60.00;;;;;;2080396;28;20034;-64
2021/09/15 10:47:36;;;;;;;5.53;3.58;;;21.70;60.00;;;;;;2081658;28;20029;-64
2021/09/15 10:48:37;;;;;;;5.18;3.80;;;21.70;60.00;;;;;;2081855;28;20021;-64
2021/09/15 10:49:41;;;;;;;7.05;3.95;;;21.70;60.00;;;;;;2080192;28;20484;-64
2021/09/15 10:50:42;;;;;;;7.28;4.22;;;21.70;60.00;;;;;;2073337;28;20517;-64
2021/09/15 10:51:42;;;;;;;5.40;3.80;;;21.70;60.00;;;;;;2073511;28;20022;-64
2021/09/15 10:52:43;;;;;;;4.55;3.80;;;21.70;60.00;;;;;;2073509;28;20028;-64
2021/09/15 10:53:44;;;;;;;8.00;4.10;;;21.70;59.90;;;;;;2073520;28;20069;-64
2021/09/15 10:54:55;;;;;;;5.65;3.88;;;21.70;60.00;;;;;;2073017;28;20030;-64
2021/09/15 10:55:57;;;;;;;7.68;3.70;;;21.70;60.00;;;;;;2081382;28;20060;-64
2021/09/15 10:57:31;;;;;;;6.53;3.78;;;21.70;60.00;;;;;;2081761;28;20018;-64
2021/09/15 10:58:43;;;;;;;5.65;3.95;;;21.70;60.00;;;;;;2081907;28;20040;-63
2021/09/15 10:59:46;;;;;;;;;;;21.70;60.00;;;;;;2081987;28;20030;-63
2021/09/15 11:00:48;;;;;;;4.20;3.60;;;21.70;60.00;;;;;;2081729;28;19993;-63
2021/09/15 11:01:48;;;;;;;7.15;3.38;;;21.70;60.00;;;;;;2081563;28;20098;-64
2021/09/15 11:02:49;;;;;;;4.57;3.38;;;21.70;60.00;;;;;;2081721;28;20084;-64
2021/09/15 11:03:53;;;;;;;6.85;4.38;;;21.70;60.00;;;;;;2081834;28;20452;-64